createdAt,value
2022-08-04T00:02:16.177Z,2.00
2022-08-04T00:04:53.420Z,2.10
2022-08-04T00:07:57.156Z,2.25
2022-08-04T00:10:26.093Z,2.20
2022-08-04T00:12:56.036Z,2.40
2022-08-04T00:15:23.927Z,2.28
2022-08-04T00:18:09.843Z,1.80
2022-08-04T00:20:42.024Z,2.17
2022-08-04T00:23:09.303Z,1.98
2022-08-04T00:25:41.019Z,2.25
2022-08-04T00:28:07.766Z,2.35
2022-08-04T00:30:34.366Z,2.13
2022-08-04T00:33:01.982Z,2.40
2022-08-04T00:35:29.703Z,2.08
2022-08-04T00:37:57.035Z,2.53
2022-08-04T00:40:29.180Z,2.40
2022-08-04T00:43:28.851Z,2.30
2022-08-04T00:46:41.368Z,2.30
2022-08-04T00:49:10.696Z,2.25
2022-08-04T00:52:32.184Z,2.35
2022-08-04T00:55:00.003Z,2.20
2022-08-04T00:57:39.847Z,2.40
2022-08-04T01:00:09.488Z,2.08
2022-08-04T01:02:45.106Z,2.13
2022-08-04T01:05:20.678Z,2.25
2022-08-04T01:08:06.135Z,1.95
2022-08-04T01:10:46.721Z,1.95
2022-08-04T01:13:35.091Z,2.03
2022-08-04T01:16:11.212Z,2.22
2022-08-04T01:19:01.167Z,1.95
2022-08-04T01:21:30.547Z,2.38
2022-08-04T01:24:20.107Z,1.90
2022-08-04T01:26:58.338Z,2.10
2022-08-04T01:29:31.044Z,2.20
2022-08-04T01:32:26.458Z,1.73
2022-08-04T01:35:01.123Z,2.13
2022-08-04T01:37:30.211Z,2.22
2022-08-04T01:40:03.017Z,2.10
2022-08-04T01:42:32.703Z,2.20
2022-08-04T01:45:03.757Z,2.38
2022-08-04T01:47:31.134Z,2.50
2022-08-04T01:50:09.266Z,2.40
2022-08-04T01:52:48.998Z,2.22
2022-08-04T01:55:18.522Z,2.55
2022-08-04T01:57:51.676Z,2.10
2022-08-04T02:00:24.863Z,2.10
2022-08-04T02:02:51.478Z,2.10
2022-08-04T02:05:22.030Z,3.00
2022-08-04T02:08:18.373Z,2.42
2022-08-04T02:11:00.640Z,2.17
2022-08-04T02:13:32.200Z,2.40
2022-08-04T02:16:13.611Z,1.92
2022-08-04T02:18:55.377Z,2.72
2022-08-04T02:21:25.572Z,2.85
2022-08-04T02:23:59.467Z,2.47
2022-08-04T02:26:29.628Z,2.42
2022-08-04T02:29:04.290Z,2.42
2022-08-04T02:34:09.185Z,2.50
2022-08-04T02:36:43.573Z,2.40
2022-08-04T02:39:12.495Z,2.10
2022-08-04T02:41:40.812Z,2.15
2022-08-04T02:44:10.177Z,2.55
2022-08-04T02:46:38.283Z,2.30
2022-08-04T02:49:08.679Z,2.47
2022-08-04T02:51:56.420Z,2.30
2022-08-04T02:54:31.760Z,2.45
2022-08-04T02:57:01.199Z,2.45
2022-08-04T02:59:29.828Z,2.10
2022-08-04T03:01:58.239Z,2.45
2022-08-04T03:04:57.836Z,2.45
2022-08-04T03:07:48.775Z,2.75
2022-08-04T03:10:47.960Z,2.15
2022-08-04T03:13:37.232Z,2.38
2022-08-04T03:16:30.202Z,2.35
2022-08-04T03:20:03.070Z,2.42
2022-08-04T03:23:12.673Z,2.47
2022-08-04T03:26:07.205Z,2.40
2022-08-04T03:28:58.155Z,2.40
2022-08-04T03:31:39.785Z,2.40
2022-08-04T03:34:37.207Z,2.67
2022-08-04T03:37:31.291Z,2.58
2022-08-04T03:40:28.678Z,2.65
2022-08-04T03:43:58.700Z,2.38
2022-08-04T03:46:45.481Z,2.10
2022-08-04T03:49:35.610Z,2.03
2022-08-04T03:52:47.345Z,2.38
2022-08-04T03:55:38.855Z,2.70
2022-08-04T03:58:36.295Z,2.55
2022-08-04T04:01:03.035Z,2.22
2022-08-04T04:03:47.491Z,2.75
2022-08-04T04:06:38.490Z,2.67
2022-08-04T04:09:30.042Z,2.28
2022-08-04T04:12:31.114Z,2.50
2022-08-04T04:15:22.135Z,2.92
2022-08-04T04:18:24.476Z,2.60
2022-08-04T04:21:16.295Z,2.35
2022-08-04T04:23:57.785Z,2.40
2022-08-04T04:26:52.204Z,2.88
2022-08-04T04:29:30.739Z,3.47
2022-08-04T04:32:06.182Z,2.97
2022-08-04T04:35:01.075Z,2.72
2022-08-04T04:38:21.842Z,2.78
2022-08-04T04:41:09.943Z,2.53
2022-08-04T04:43:51.202Z,2.67
2022-08-04T04:46:30.128Z,2.80
2022-08-04T04:49:20.704Z,2.72
2022-08-04T04:51:58.277Z,2.63
2022-08-04T04:54:37.031Z,2.50
2022-08-04T04:57:11.596Z,2.47
2022-08-04T04:59:52.655Z,2.58
2022-08-04T05:02:40.058Z,2.55
2022-08-04T05:05:31.960Z,2.83
2022-08-04T05:08:44.315Z,2.67
2022-08-04T05:11:32.973Z,2.58
2022-08-04T05:14:35.369Z,2.47
2022-08-04T05:17:06.610Z,3.00
2022-08-04T05:19:39.379Z,2.53
2022-08-04T05:22:14.846Z,2.58
2022-08-04T05:24:45.252Z,2.80
2022-08-04T05:27:22.329Z,2.80
2022-08-04T05:29:56.817Z,2.58
2022-08-04T05:32:32.626Z,2.70
2022-08-04T05:35:04.825Z,2.75
2022-08-04T05:37:35.194Z,2.42
2022-08-04T05:40:06.976Z,2.50
2022-08-04T05:42:38.428Z,2.45
2022-08-04T05:45:07.881Z,2.50
2022-08-04T05:47:35.929Z,2.40
2022-08-04T05:50:04.239Z,2.40
2022-08-04T05:52:32.834Z,2.35
2022-08-04T05:55:00.500Z,2.17
2022-08-04T05:57:28.720Z,2.33
2022-08-04T05:59:57.438Z,2.78
2022-08-04T06:02:25.226Z,2.40
2022-08-04T06:04:53.549Z,2.22
2022-08-04T06:07:20.615Z,2.15
2022-08-04T06:09:47.432Z,2.22
2022-08-04T06:12:33.140Z,1.92
2022-08-04T06:15:01.390Z,2.50
2022-08-04T06:19:59.164Z,2.05
2022-08-04T06:20:22.970Z,1.90
2022-08-04T06:22:56.086Z,2.30
2022-08-04T06:25:25.409Z,2.22
2022-08-04T06:27:53.376Z,2.17
2022-08-04T06:30:20.872Z,2.20
2022-08-04T06:33:04.102Z,2.30
2022-08-04T06:35:33.603Z,2.40
2022-08-04T06:38:01.671Z,1.92
2022-08-04T06:40:32.868Z,2.38
2022-08-04T06:43:11.563Z,2.30
2022-08-04T06:45:39.873Z,2.33
2022-08-04T06:48:07.019Z,2.20
2022-08-04T06:51:24.724Z,2.40
2022-08-04T06:53:25.214Z,2.20
2022-08-04T06:55:53.500Z,2.10
2022-08-04T06:58:21.795Z,2.22
2022-08-04T07:00:50.013Z,2.20
2022-08-04T07:03:19.094Z,2.40
2022-08-04T07:05:47.614Z,2.53
2022-08-04T07:08:14.743Z,2.35
2022-08-04T07:10:41.987Z,2.05
2022-08-04T07:13:10.604Z,2.03
2022-08-04T07:15:41.186Z,2.17
2022-08-04T07:18:07.655Z,1.98
2022-08-04T07:20:36.845Z,2.10
2022-08-04T07:23:08.719Z,1.90
2022-08-04T07:26:00.031Z,2.15
2022-08-04T07:28:28.105Z,2.33
2022-08-04T07:30:56.001Z,2.13
2022-08-04T07:33:23.679Z,2.40
2022-08-04T07:36:05.545Z,2.28
2022-08-04T07:38:50.721Z,2.22
2022-08-04T07:41:40.640Z,2.28
2022-08-04T07:44:08.493Z,2.55
2022-08-04T07:46:36.290Z,2.20
2022-08-04T07:49:04.519Z,2.42
2022-08-04T07:51:31.684Z,2.40
2022-08-04T07:54:00.176Z,2.13
2022-08-04T07:56:28.380Z,2.28
2022-08-04T07:58:55.378Z,2.38
2022-08-04T08:01:23.445Z,1.92
2022-08-04T08:03:50.872Z,2.20
2022-08-04T08:06:31.297Z,2.58
2022-08-04T08:09:12.129Z,2.58
2022-08-04T08:12:38.380Z,2.30
2022-08-04T08:14:28.573Z,1.95
2022-08-04T08:16:55.051Z,2.20
2022-08-04T08:19:21.723Z,2.10
2022-08-04T08:21:59.420Z,2.10
2022-08-04T08:24:28.538Z,1.98
2022-08-04T08:26:57.285Z,1.90
2022-08-04T08:29:25.737Z,2.00
2022-08-04T08:31:58.323Z,2.40
2022-08-04T08:34:29.121Z,2.05
2022-08-04T08:37:16.657Z,2.00
2022-08-04T08:39:56.284Z,1.88
2022-08-04T08:42:44.669Z,2.17
2022-08-04T08:45:24.685Z,2.08
2022-08-04T08:48:13.044Z,2.20
2022-08-04T08:51:13.206Z,2.30
2022-08-04T08:53:59.398Z,1.92
2022-08-04T08:56:34.067Z,2.13
2022-08-04T08:59:19.238Z,2.33
2022-08-04T09:01:57.457Z,2.50
2022-08-04T09:04:50.675Z,2.08
2022-08-04T09:10:20.879Z,2.20
2022-08-04T09:12:56.239Z,1.80
2022-08-04T09:15:38.449Z,2.42
2022-08-04T09:18:18.282Z,2.35
2022-08-04T09:20:50.936Z,2.08
2022-08-04T09:23:44.279Z,2.10
2022-08-04T09:28:57.831Z,1.98
2022-08-04T09:31:51.597Z,2.38
2022-08-04T09:34:27.677Z,2.22
2022-08-04T09:37:05.027Z,2.25
2022-08-04T09:39:52.125Z,2.03
2022-08-04T09:42:41.731Z,2.30
2022-08-04T09:45:26.091Z,2.00
2022-08-04T09:47:59.992Z,2.50
2022-08-04T09:50:37.417Z,2.00
2022-08-04T09:53:10.979Z,2.25
2022-08-04T09:55:54.546Z,2.10
2022-08-04T09:58:44.915Z,2.22
2022-08-04T10:01:19.890Z,2.15
2022-08-04T10:03:53.532Z,1.98
2022-08-04T10:06:22.624Z,2.45
2022-08-04T10:09:12.430Z,2.08
2022-08-04T10:12:05.900Z,2.20
2022-08-04T10:14:56.964Z,2.25
2022-08-04T10:17:29.548Z,2.38
2022-08-04T10:20:52.761Z,2.35
2022-08-04T10:23:56.432Z,2.42
2022-08-04T10:26:58.086Z,2.42
2022-08-04T10:29:32.298Z,2.30
2022-08-04T10:32:11.726Z,2.35
2022-08-04T10:35:03.087Z,2.40
2022-08-04T10:37:58.983Z,2.90
2022-08-04T10:40:37.874Z,2.60
2022-08-04T10:43:33.052Z,2.60
2022-08-04T10:46:11.155Z,2.88
2022-08-04T10:48:47.114Z,2.30
2022-08-04T10:51:24.451Z,2.50
2022-08-04T10:53:56.026Z,2.58
2022-08-04T10:56:32.743Z,2.38
2022-08-04T10:59:12.509Z,2.38
2022-08-04T11:02:01.007Z,2.50
2022-08-04T11:04:35.437Z,2.50
2022-08-04T11:07:02.968Z,2.42
2022-08-04T11:09:31.352Z,2.22
2022-08-04T11:12:10.204Z,2.45
2022-08-04T11:14:45.191Z,2.30
2022-08-04T11:17:19.900Z,2.28
2022-08-04T11:20:18.658Z,1.95
2022-08-04T11:22:55.602Z,2.00
2022-08-04T11:25:53.311Z,2.20
2022-08-04T11:28:39.457Z,2.10
2022-08-04T11:31:18.764Z,2.28
2022-08-04T11:34:03.536Z,2.35
2022-08-04T11:36:48.818Z,2.05
2022-08-04T11:39:22.257Z,1.90
2022-08-04T11:41:56.863Z,2.10
2022-08-04T11:44:31.872Z,2.40
2022-08-04T11:47:08.388Z,2.13
2022-08-04T11:49:57.173Z,2.00
2022-08-04T11:52:27.376Z,2.05
2022-08-04T11:54:55.586Z,1.80
2022-08-04T11:57:36.170Z,1.90
2022-08-04T12:00:12.963Z,2.20
2022-08-04T12:02:58.883Z,1.67
2022-08-04T12:05:37.992Z,1.95
2022-08-04T12:08:33.059Z,1.60
2022-08-04T12:11:16.531Z,1.60
2022-08-04T12:13:55.314Z,1.75
2022-08-04T12:16:30.880Z,1.88
2022-08-04T12:21:32.019Z,2.15
2022-08-04T12:24:05.911Z,1.98
2022-08-04T12:26:41.431Z,2.03
2022-08-04T12:29:11.652Z,1.60
2022-08-04T12:31:56.547Z,1.73
2022-08-04T12:34:35.272Z,1.90
2022-08-04T12:37:28.812Z,2.08
2022-08-04T12:40:28.562Z,2.00
2022-08-04T12:42:59.967Z,1.95
2022-08-04T12:45:27.350Z,1.90
2022-08-04T12:47:57.808Z,2.20
2022-08-04T12:50:25.403Z,2.15
2022-08-04T12:53:04.007Z,2.17
2022-08-04T12:55:34.362Z,2.10
2022-08-04T12:58:04.301Z,1.90
2022-08-04T13:00:43.370Z,2.30
2022-08-04T13:03:14.271Z,2.20
2022-08-04T13:05:42.309Z,1.90
2022-08-04T13:08:10.912Z,1.80
2022-08-04T13:10:41.796Z,1.80
2022-08-04T13:13:15.491Z,1.70
2022-08-04T13:15:47.046Z,1.70
2022-08-04T13:18:27.394Z,1.63
2022-08-04T13:20:57.904Z,1.67
2022-08-04T13:23:27.464Z,1.70
2022-08-04T13:26:44.207Z,1.70
2022-08-04T13:29:16.708Z,1.85
2022-08-04T13:31:52.984Z,1.90
2022-08-04T13:34:21.118Z,2.03
2022-08-04T13:36:48.953Z,2.05
2022-08-04T13:39:19.357Z,1.60
2022-08-04T13:41:53.768Z,1.90
2022-08-04T13:44:30.202Z,1.80
2022-08-04T13:47:01.943Z,3.13
2022-08-04T13:49:38.140Z,2.03
2022-08-04T13:52:15.517Z,1.92
2022-08-04T13:54:44.714Z,2.17
2022-08-04T13:57:16.044Z,2.10
2022-08-04T13:59:46.282Z,1.83
2022-08-04T14:02:28.188Z,1.70
2022-08-04T14:04:57.221Z,1.80
2022-08-04T14:07:25.812Z,1.90
2022-08-04T14:10:03.118Z,2.42
2022-08-04T14:12:46.419Z,2.00
2022-08-04T14:16:02.077Z,2.10
2022-08-04T14:18:31.895Z,1.73
2022-08-04T14:21:11.291Z,1.98
2022-08-04T14:23:47.735Z,1.80
2022-08-04T14:26:17.940Z,2.10
2022-08-04T14:29:01.047Z,1.90
2022-08-04T14:31:31.663Z,2.20
2022-08-04T14:34:03.543Z,1.92
2022-08-04T14:37:13.121Z,1.90
2022-08-04T14:40:18.472Z,2.30
2022-08-04T14:42:54.972Z,2.50
2022-08-04T14:45:54.608Z,1.90
2022-08-04T14:48:21.883Z,2.08
2022-08-04T14:50:50.541Z,2.30
2022-08-04T14:53:19.548Z,1.80
2022-08-04T14:55:49.464Z,2.00
2022-08-04T14:58:36.400Z,2.03
2022-08-04T15:01:10.842Z,2.17
2022-08-04T15:03:49.931Z,2.33
2022-08-04T15:06:22.479Z,2.20
2022-08-04T15:08:52.008Z,1.90
2022-08-04T15:11:23.032Z,2.20
2022-08-04T15:13:50.698Z,2.30
2022-08-04T15:16:17.593Z,2.20
2022-08-04T15:18:44.106Z,2.15
2022-08-04T15:21:16.436Z,2.60
2022-08-04T15:23:43.430Z,2.17
2022-08-04T15:26:13.944Z,2.47
2022-08-04T15:28:45.239Z,2.13
2022-08-04T15:32:07.044Z,2.10
2022-08-04T15:33:59.823Z,2.13
2022-08-04T15:36:42.380Z,2.03
2022-08-04T15:39:22.619Z,2.10
2022-08-04T15:41:58.241Z,2.75
2022-08-04T15:44:35.486Z,2.33
2022-08-04T15:47:04.634Z,2.33
2022-08-04T15:49:31.934Z,2.10
2022-08-04T15:52:02.942Z,2.25
2022-08-04T15:54:32.929Z,2.30
2022-08-04T15:57:02.397Z,2.40
2022-08-04T15:59:59.771Z,2.15
2022-08-04T16:02:47.446Z,2.40
2022-08-04T16:05:18.573Z,2.38
2022-08-04T16:08:09.375Z,1.95
2022-08-04T16:10:37.983Z,2.30
2022-08-04T16:13:10.536Z,2.60
2022-08-04T16:15:44.709Z,2.20
2022-08-04T16:18:26.160Z,1.88
2022-08-04T16:20:58.434Z,2.22
2022-08-04T16:23:56.950Z,2.72
2022-08-04T16:26:38.202Z,2.50
2022-08-04T16:29:27.513Z,2.30
2022-08-04T16:32:06.639Z,2.20
2022-08-04T16:34:55.594Z,2.72
2022-08-04T16:37:35.024Z,2.25
2022-08-04T16:40:39.543Z,2.13
2022-08-04T16:43:18.040Z,2.50
2022-08-04T16:45:54.696Z,2.33
2022-08-04T16:48:44.178Z,1.98
2022-08-04T16:51:13.057Z,2.40
2022-08-04T16:53:53.106Z,2.25
2022-08-04T16:56:33.551Z,2.33
2022-08-04T16:59:09.954Z,2.08
2022-08-04T17:01:38.007Z,2.17
2022-08-04T17:04:05.287Z,2.45
2022-08-04T17:06:43.344Z,2.60
2022-08-04T17:09:12.791Z,2.25
2022-08-04T17:11:40.614Z,2.10
2022-08-04T17:14:08.453Z,2.58
2022-08-04T17:16:37.977Z,2.33
2022-08-04T17:19:05.591Z,2.40
2022-08-04T17:21:34.753Z,2.10
2022-08-04T17:24:14.514Z,2.50
2022-08-04T17:26:54.026Z,2.15
2022-08-04T17:29:42.844Z,2.50
2022-08-04T17:32:21.718Z,2.30
2022-08-04T17:34:54.233Z,2.35
2022-08-04T17:37:52.246Z,2.55
2022-08-04T17:40:17.916Z,2.63
2022-08-04T17:42:45.774Z,2.47
2022-08-04T17:45:51.342Z,2.15
2022-08-04T17:48:09.892Z,2.33
2022-08-04T17:50:36.809Z,2.42
2022-08-04T17:53:12.187Z,2.60
2022-08-04T17:55:47.612Z,2.28
2022-08-04T17:58:23.419Z,2.40
2022-08-04T18:01:22.448Z,2.67
2022-08-04T18:03:51.951Z,2.35
2022-08-04T18:06:21.573Z,2.70
2022-08-04T18:08:58.869Z,2.28
2022-08-04T18:11:29.894Z,2.47
2022-08-04T18:14:10.584Z,2.67
2022-08-04T18:16:45.423Z,2.67
2022-08-04T18:19:14.639Z,2.80
2022-08-04T18:21:46.717Z,2.40
2022-08-04T18:24:34.394Z,2.50
2022-08-04T18:27:06.561Z,2.45
2022-08-04T18:29:34.449Z,2.53
2022-08-04T18:32:08.982Z,2.63
2022-08-04T18:34:40.669Z,2.67
2022-08-04T18:38:06.624Z,2.90
2022-08-04T18:40:26.462Z,2.90
2022-08-04T18:42:56.423Z,3.20
2022-08-04T18:45:24.039Z,2.90
2022-08-04T18:48:01.776Z,2.80
2022-08-04T18:51:00.634Z,2.75
2022-08-04T18:53:16.468Z,2.65
2022-08-04T18:55:56.611Z,3.00
2022-08-04T18:58:27.675Z,2.90
2022-08-04T19:00:56.205Z,2.85
2022-08-04T19:03:27.276Z,3.42
2022-08-04T19:06:00.204Z,3.30
2022-08-04T19:08:34.269Z,3.15
2022-08-04T19:11:02.253Z,3.08
2022-08-04T19:13:54.463Z,3.00
2022-08-04T19:16:25.360Z,3.00
2022-08-04T19:18:52.531Z,2.83
2022-08-04T19:21:19.347Z,2.83
2022-08-04T19:24:30.533Z,2.92
2022-08-04T19:26:53.272Z,3.50
2022-08-04T19:29:20.537Z,2.92
2022-08-04T19:31:47.787Z,3.47
2022-08-04T19:34:17.671Z,3.25
2022-08-04T19:36:59.908Z,2.72
2022-08-04T19:39:26.498Z,3.35
2022-08-04T19:42:06.591Z,5.30
2022-08-04T19:44:34.062Z,3.65
2022-08-04T19:47:02.465Z,2.92
2022-08-04T19:50:05.282Z,3.10
2022-08-04T19:52:35.748Z,2.90
2022-08-04T19:55:10.401Z,4.00
2022-08-04T19:57:43.824Z,3.15
2022-08-04T20:00:15.236Z,3.40
2022-08-04T20:02:41.904Z,3.50
2022-08-04T20:05:08.916Z,2.85
2022-08-04T20:07:36.051Z,3.03
2022-08-04T20:10:07.658Z,3.28
2022-08-04T20:12:42.082Z,3.30
2022-08-04T20:15:10.887Z,3.15
2022-08-04T20:18:08.350Z,2.92
2022-08-04T20:20:24.349Z,3.67
2022-08-04T20:22:53.418Z,2.95
2022-08-04T20:25:37.288Z,2.95
2022-08-04T20:30:33.081Z,3.58
2022-08-04T20:33:01.035Z,3.03
2022-08-04T20:35:29.428Z,3.47
2022-08-04T20:38:00.307Z,3.30
2022-08-04T20:40:28.567Z,3.42
2022-08-04T20:42:57.410Z,3.33
2022-08-04T20:45:31.799Z,3.40
2022-08-04T20:48:10.793Z,3.25
2022-08-04T20:50:37.676Z,3.90
2022-08-04T20:53:16.753Z,3.55
2022-08-04T20:55:47.229Z,3.25
2022-08-04T20:58:27.611Z,3.50
2022-08-04T21:00:55.323Z,3.33
2022-08-04T21:03:49.800Z,3.50
2022-08-04T21:06:09.063Z,3.40
2022-08-04T21:08:37.077Z,3.60
2022-08-04T21:11:04.530Z,3.38
2022-08-04T21:13:52.310Z,3.78
2022-08-04T21:19:06.700Z,3.40
2022-08-04T21:21:40.760Z,3.60
2022-08-04T21:24:07.777Z,3.30
2022-08-04T21:26:35.384Z,3.30
2022-08-04T21:29:04.770Z,3.65
2022-08-04T21:31:32.499Z,3.80
2022-08-04T21:34:14.411Z,3.25
2022-08-04T21:37:00.752Z,3.47
2022-08-04T21:39:32.520Z,3.40
2022-08-04T21:44:46.202Z,5.43
2022-08-04T21:47:23.286Z,3.35
2022-08-04T21:49:56.317Z,3.50
2022-08-04T21:52:24.560Z,3.83
2022-08-04T21:54:54.115Z,3.70
2022-08-04T21:57:24.857Z,3.60
2022-08-04T21:59:52.235Z,3.88
2022-08-04T22:02:18.709Z,4.35
2022-08-04T22:04:45.211Z,3.55
2022-08-04T22:07:12.454Z,3.63
2022-08-04T22:09:56.216Z,3.50
2022-08-04T22:12:27.244Z,3.77
2022-08-04T22:17:47.735Z,3.47
2022-08-04T22:20:27.937Z,3.63
2022-08-04T22:22:58.610Z,3.58
2022-08-04T22:25:30.980Z,3.70
2022-08-04T22:28:02.597Z,3.38
2022-08-04T22:30:36.778Z,3.40
2022-08-04T22:33:07.620Z,3.47
2022-08-04T22:35:43.995Z,4.07
2022-08-04T22:38:25.337Z,4.40
2022-08-04T22:41:01.924Z,4.15
2022-08-04T22:43:31.933Z,3.65
2022-08-04T22:46:01.941Z,4.10
2022-08-04T22:48:32.022Z,3.65
2022-08-04T22:50:59.015Z,3.88
2022-08-04T22:53:25.403Z,4.20
2022-08-04T22:56:07.359Z,3.75
2022-08-04T22:58:45.144Z,4.18
2022-08-04T23:01:16.936Z,3.60
2022-08-04T23:03:51.109Z,4.13
2022-08-04T23:06:25.434Z,3.78
2022-08-04T23:08:53.564Z,3.90
2022-08-04T23:11:20.520Z,3.90
2022-08-04T23:13:47.261Z,4.10
2022-08-04T23:16:15.716Z,3.70
2022-08-04T23:18:43.528Z,3.95
2022-08-04T23:21:12.381Z,3.80
2022-08-04T23:23:45.499Z,3.35
2022-08-04T23:26:27.929Z,4.40
2022-08-04T23:28:56.274Z,4.03
2022-08-04T23:31:23.312Z,3.60
2022-08-04T23:33:51.764Z,3.90
2022-08-04T23:36:26.443Z,3.80
2022-08-04T23:38:59.827Z,3.55
2022-08-04T23:41:54.366Z,3.90
2022-08-04T23:44:17.518Z,4.20
2022-08-04T23:46:53.359Z,4.00
2022-08-04T23:49:21.968Z,4.20
2022-08-04T23:51:49.692Z,4.45
2022-08-04T23:54:16.252Z,4.45
2022-08-04T23:56:52.184Z,4.00
2022-08-04T23:59:51.918Z,4.07
